sensor_id;sensor_type;location;lat;lon;timestamp;P1;durP1;ratioP1;P2;durP2;ratioP2
21251;SDS011;10784;50.578;17.878;2023-02-28T00:01:51;17.70;;;6.82;;
21251;SDS011;10784;50.578;17.878;2023-02-28T00:04:24;21.15;;;6.90;;
21251;SDS011;10784;50.578;17.878;2023-02-28T00:06:57;25.90;;;7.80;;
21251;SDS011;10784;50.578;17.878;2023-02-28T00:09:30;28.40;;;7.72;;
21251;SDS011;10784;50.578;17.878;2023-02-28T00:12:02;20.05;;;7.40;;
21251;SDS011;10784;50.578;17.878;2023-02-28T00:14:44;18.70;;;6.93;;
21251;SDS011;10784;50.578;17.878;2023-02-28T00:17:16;24.38;;;6.85;;
21251;SDS011;10784;50.578;17.878;2023-02-28T00:19:54;15.38;;;7.03;;
21251;SDS011;10784;50.578;17.878;2023-02-28T00:22:26;22.10;;;6.53;;
21251;SDS011;10784;50.578;17.878;2023-02-28T00:25:00;15.32;;;5.88;;
21251;SDS011;10784;50.578;17.878;2023-02-28T00:27:33;14.18;;;5.70;;
21251;SDS011;10784;50.578;17.878;2023-02-28T00:30:13;14.98;;;5.72;;
21251;SDS011;10784;50.578;17.878;2023-02-28T00:32:46;13.98;;;5.75;;
21251;SDS011;10784;50.578;17.878;2023-02-28T00:35:20;8.52;;;4.80;;
21251;SDS011;10784;50.578;17.878;2023-02-28T00:37:52;14.15;;;5.70;;
21251;SDS011;10784;50.578;17.878;2023-02-28T00:40:25;15.45;;;5.80;;
21251;SDS011;10784;50.578;17.878;2023-02-28T00:42:58;10.10;;;5.45;;
21251;SDS011;10784;50.578;17.878;2023-02-28T00:45:31;7.95;;;4.38;;
21251;SDS011;10784;50.578;17.878;2023-02-28T00:48:03;15.82;;;5.60;;
21251;SDS011;10784;50.578;17.878;2023-02-28T00:50:36;12.77;;;5.40;;
21251;SDS011;10784;50.578;17.878;2023-02-28T00:53:09;9.73;;;4.78;;
21251;SDS011;10784;50.578;17.878;2023-02-28T00:55:42;11.45;;;5.30;;
21251;SDS011;10784;50.578;17.878;2023-02-28T00:58:15;14.10;;;5.45;;
21251;SDS011;10784;50.578;17.878;2023-02-28T01:00:48;17.75;;;5.43;;
21251;SDS011;10784;50.578;17.878;2023-02-28T01:03:21;18.50;;;5.78;;
21251;SDS011;10784;50.578;17.878;2023-02-28T01:05:55;14.07;;;5.82;;
21251;SDS011;10784;50.578;17.878;2023-02-28T01:08:28;13.50;;;4.82;;
21251;SDS011;10784;50.578;17.878;2023-02-28T01:11:08;15.45;;;5.82;;
21251;SDS011;10784;50.578;17.878;2023-02-28T01:13:41;18.33;;;7.07;;
21251;SDS011;10784;50.578;17.878;2023-02-28T01:16:16;9.45;;;5.25;;
21251;SDS011;10784;50.578;17.878;2023-02-28T01:18:49;21.17;;;7.78;;
21251;SDS011;10784;50.578;17.878;2023-02-28T01:21:22;15.70;;;6.22;;
21251;SDS011;10784;50.578;17.878;2023-02-28T01:23:56;18.30;;;6.68;;
21251;SDS011;10784;50.578;17.878;2023-02-28T01:26:29;18.50;;;6.60;;
21251;SDS011;10784;50.578;17.878;2023-02-28T01:29:02;17.00;;;6.45;;
21251;SDS011;10784;50.578;17.878;2023-02-28T01:31:35;15.77;;;6.85;;
21251;SDS011;10784;50.578;17.878;2023-02-28T01:34:08;16.00;;;6.47;;
21251;SDS011;10784;50.578;17.878;2023-02-28T01:36:41;16.90;;;5.80;;
21251;SDS011;10784;50.578;17.878;2023-02-28T01:39:15;21.23;;;5.82;;
21251;SDS011;10784;50.578;17.878;2023-02-28T01:41:48;16.00;;;7.10;;
21251;SDS011;10784;50.578;17.878;2023-02-28T01:47:12;16.10;;;6.40;;
21251;SDS011;10784;50.578;17.878;2023-02-28T01:49:45;14.43;;;5.30;;
21251;SDS011;10784;50.578;17.878;2023-02-28T01:52:18;12.95;;;5.65;;
21251;SDS011;10784;50.578;17.878;2023-02-28T01:54:55;13.05;;;5.78;;
21251;SDS011;10784;50.578;17.878;2023-02-28T01:57:29;14.20;;;6.47;;
21251;SDS011;10784;50.578;17.878;2023-02-28T02:00:05;18.05;;;6.97;;
21251;SDS011;10784;50.578;17.878;2023-02-28T02:02:45;19.92;;;7.60;;
21251;SDS011;10784;50.578;17.878;2023-02-28T02:05:20;18.80;;;6.32;;
21251;SDS011;10784;50.578;17.878;2023-02-28T02:07:58;16.25;;;6.90;;
21251;SDS011;10784;50.578;17.878;2023-02-28T02:21:15;16.00;;;5.82;;
21251;SDS011;10784;50.578;17.878;2023-02-28T02:29:12;15.15;;;6.40;;
21251;SDS011;10784;50.578;17.878;2023-02-28T02:42:50;17.00;;;5.40;;
21251;SDS011;10784;50.578;17.878;2023-02-28T02:47:58;12.32;;;5.72;;
21251;SDS011;10784;50.578;17.878;2023-02-28T02:50:38;16.08;;;6.18;;
21251;SDS011;10784;50.578;17.878;2023-02-28T02:53:13;14.05;;;5.90;;
21251;SDS011;10784;50.578;17.878;2023-02-28T02:55:48;15.80;;;6.85;;
21251;SDS011;10784;50.578;17.878;2023-02-28T02:58:29;17.65;;;7.10;;
21251;SDS011;10784;50.578;17.878;2023-02-28T03:01:03;15.98;;;5.90;;
21251;SDS011;10784;50.578;17.878;2023-02-28T03:03:37;19.17;;;6.32;;
21251;SDS011;10784;50.578;17.878;2023-02-28T03:06:10;17.13;;;6.60;;
21251;SDS011;10784;50.578;17.878;2023-02-28T03:08:42;17.38;;;7.15;;
21251;SDS011;10784;50.578;17.878;2023-02-28T03:11:15;25.17;;;6.95;;
21251;SDS011;10784;50.578;17.878;2023-02-28T03:16:42;15.32;;;7.38;;
21251;SDS011;10784;50.578;17.878;2023-02-28T03:25:13;14.82;;;7.88;;
21251;SDS011;10784;50.578;17.878;2023-02-28T03:28:05;12.80;;;7.90;;
21251;SDS011;10784;50.578;17.878;2023-02-28T03:34:06;14.68;;;7.80;;
21251;SDS011;10784;50.578;17.878;2023-02-28T03:36:45;18.27;;;8.98;;
21251;SDS011;10784;50.578;17.878;2023-02-28T03:39:33;15.98;;;6.90;;
21251;SDS011;10784;50.578;17.878;2023-02-28T03:42:08;17.90;;;7.78;;
21251;SDS011;10784;50.578;17.878;2023-02-28T03:47:25;22.85;;;8.23;;
21251;SDS011;10784;50.578;17.878;2023-02-28T03:53:07;17.27;;;8.55;;
21251;SDS011;10784;50.578;17.878;2023-02-28T03:55:43;19.40;;;8.85;;
21251;SDS011;10784;50.578;17.878;2023-02-28T04:00:59;16.65;;;7.90;;
21251;SDS011;10784;50.578;17.878;2023-02-28T04:03:40;23.58;;;7.90;;
21251;SDS011;10784;50.578;17.878;2023-02-28T04:06:20;21.52;;;8.43;;
21251;SDS011;10784;50.578;17.878;2023-02-28T04:08:53;20.35;;;8.25;;
21251;SDS011;10784;50.578;17.878;2023-02-28T04:11:29;18.25;;;8.23;;
21251;SDS011;10784;50.578;17.878;2023-02-28T04:14:05;20.98;;;8.13;;
21251;SDS011;10784;50.578;17.878;2023-02-28T04:16:40;15.18;;;7.53;;
21251;SDS011;10784;50.578;17.878;2023-02-28T04:19:15;21.48;;;7.13;;
21251;SDS011;10784;50.578;17.878;2023-02-28T04:21:51;21.08;;;8.60;;
21251;SDS011;10784;50.578;17.878;2023-02-28T04:24:26;18.27;;;7.30;;
21251;SDS011;10784;50.578;17.878;2023-02-28T04:26:59;21.77;;;8.98;;
21251;SDS011;10784;50.578;17.878;2023-02-28T04:29:32;20.75;;;7.63;;
21251;SDS011;10784;50.578;17.878;2023-02-28T04:32:05;14.55;;;7.55;;
21251;SDS011;10784;50.578;17.878;2023-02-28T04:34:39;18.65;;;8.13;;
21251;SDS011;10784;50.578;17.878;2023-02-28T04:37:13;15.38;;;7.57;;
21251;SDS011;10784;50.578;17.878;2023-02-28T04:39:46;21.45;;;8.48;;
21251;SDS011;10784;50.578;17.878;2023-02-28T04:42:19;16.33;;;6.63;;
21251;SDS011;10784;50.578;17.878;2023-02-28T04:44:52;20.48;;;8.00;;
21251;SDS011;10784;50.578;17.878;2023-02-28T04:47:25;17.17;;;7.95;;
21251;SDS011;10784;50.578;17.878;2023-02-28T04:49:58;14.63;;;7.13;;
21251;SDS011;10784;50.578;17.878;2023-02-28T04:52:31;17.90;;;6.55;;
21251;SDS011;10784;50.578;17.878;2023-02-28T04:55:05;15.93;;;8.02;;
21251;SDS011;10784;50.578;17.878;2023-02-28T04:57:43;24.02;;;8.10;;
21251;SDS011;10784;50.578;17.878;2023-02-28T05:00:16;27.83;;;7.93;;
21251;SDS011;10784;50.578;17.878;2023-02-28T05:02:49;18.65;;;7.25;;
21251;SDS011;10784;50.578;17.878;2023-02-28T05:05:22;24.50;;;6.38;;
21251;SDS011;10784;50.578;17.878;2023-02-28T05:07:55;16.73;;;6.93;;
21251;SDS011;10784;50.578;17.878;2023-02-28T05:10:28;17.65;;;7.10;;
21251;SDS011;10784;50.578;17.878;2023-02-28T05:13:01;15.85;;;7.80;;
21251;SDS011;10784;50.578;17.878;2023-02-28T05:15:33;21.77;;;7.55;;
21251;SDS011;10784;50.578;17.878;2023-02-28T05:18:08;17.10;;;6.90;;
21251;SDS011;10784;50.578;17.878;2023-02-28T05:20:40;21.75;;;7.38;;
21251;SDS011;10784;50.578;17.878;2023-02-28T05:23:13;24.08;;;8.43;;
21251;SDS011;10784;50.578;17.878;2023-02-28T05:25:46;16.17;;;7.47;;
21251;SDS011;10784;50.578;17.878;2023-02-28T05:28:20;27.38;;;8.85;;
21251;SDS011;10784;50.578;17.878;2023-02-28T05:30:52;12.52;;;6.97;;
21251;SDS011;10784;50.578;17.878;2023-02-28T05:33:25;16.98;;;7.95;;
21251;SDS011;10784;50.578;17.878;2023-02-28T05:35:58;15.07;;;6.90;;
21251;SDS011;10784;50.578;17.878;2023-02-28T05:38:31;17.77;;;6.53;;
21251;SDS011;10784;50.578;17.878;2023-02-28T05:41:10;20.33;;;6.07;;
21251;SDS011;10784;50.578;17.878;2023-02-28T05:43:43;23.35;;;7.10;;
21251;SDS011;10784;50.578;17.878;2023-02-28T05:46:16;24.38;;;6.35;;
21251;SDS011;10784;50.578;17.878;2023-02-28T05:48:49;14.18;;;6.47;;
21251;SDS011;10784;50.578;17.878;2023-02-28T05:51:22;15.93;;;6.38;;
21251;SDS011;10784;50.578;17.878;2023-02-28T05:53:58;17.58;;;7.40;;
21251;SDS011;10784;50.578;17.878;2023-02-28T05:56:31;16.33;;;6.35;;
21251;SDS011;10784;50.578;17.878;2023-02-28T05:59:04;18.20;;;6.97;;
21251;SDS011;10784;50.578;17.878;2023-02-28T06:01:38;24.40;;;7.50;;
21251;SDS011;10784;50.578;17.878;2023-02-28T06:04:12;20.05;;;6.63;;
21251;SDS011;10784;50.578;17.878;2023-02-28T06:07:02;25.60;;;10.82;;
21251;SDS011;10784;50.578;17.878;2023-02-28T06:09:36;34.00;;;10.57;;
21251;SDS011;10784;50.578;17.878;2023-02-28T06:12:09;17.77;;;7.97;;
21251;SDS011;10784;50.578;17.878;2023-02-28T06:14:42;20.88;;;9.32;;
21251;SDS011;10784;50.578;17.878;2023-02-28T06:17:15;21.23;;;8.90;;
21251;SDS011;10784;50.578;17.878;2023-02-28T06:19:48;18.33;;;8.52;;
21251;SDS011;10784;50.578;17.878;2023-02-28T06:22:20;20.73;;;8.27;;
21251;SDS011;10784;50.578;17.878;2023-02-28T06:24:53;18.00;;;8.90;;
21251;SDS011;10784;50.578;17.878;2023-02-28T06:27:26;20.80;;;8.98;;
21251;SDS011;10784;50.578;17.878;2023-02-28T06:29:59;17.95;;;7.60;;
21251;SDS011;10784;50.578;17.878;2023-02-28T06:32:32;18.77;;;8.07;;
21251;SDS011;10784;50.578;17.878;2023-02-28T06:35:05;20.33;;;6.45;;
21251;SDS011;10784;50.578;17.878;2023-02-28T06:37:38;28.83;;;8.13;;
21251;SDS011;10784;50.578;17.878;2023-02-28T06:40:13;17.48;;;7.05;;
21251;SDS011;10784;50.578;17.878;2023-02-28T06:42:45;14.07;;;6.78;;
21251;SDS011;10784;50.578;17.878;2023-02-28T06:45:18;17.23;;;8.98;;
21251;SDS011;10784;50.578;17.878;2023-02-28T06:47:51;23.25;;;7.50;;
21251;SDS011;10784;50.578;17.878;2023-02-28T06:50:24;16.98;;;6.93;;
21251;SDS011;10784;50.578;17.878;2023-02-28T06:52:58;16.48;;;5.38;;
21251;SDS011;10784;50.578;17.878;2023-02-28T06:55:31;19.23;;;6.63;;
21251;SDS011;10784;50.578;17.878;2023-02-28T06:58:05;14.38;;;6.68;;
21251;SDS011;10784;50.578;17.878;2023-02-28T07:00:50;19.48;;;6.75;;
21251;SDS011;10784;50.578;17.878;2023-02-28T07:03:23;15.02;;;5.60;;
21251;SDS011;10784;50.578;17.878;2023-02-28T07:05:56;12.07;;;4.85;;
21251;SDS011;10784;50.578;17.878;2023-02-28T07:08:29;13.98;;;5.38;;
21251;SDS011;10784;50.578;17.878;2023-02-28T07:11:03;11.65;;;5.43;;
21251;SDS011;10784;50.578;17.878;2023-02-28T07:13:36;9.90;;;5.20;;
21251;SDS011;10784;50.578;17.878;2023-02-28T07:16:09;14.35;;;5.82;;
21251;SDS011;10784;50.578;17.878;2023-02-28T07:18:42;15.23;;;5.07;;
21251;SDS011;10784;50.578;17.878;2023-02-28T07:21:15;17.02;;;5.93;;
21251;SDS011;10784;50.578;17.878;2023-02-28T07:23:48;17.25;;;5.50;;
21251;SDS011;10784;50.578;17.878;2023-02-28T07:26:21;23.13;;;5.40;;
21251;SDS011;10784;50.578;17.878;2023-02-28T07:28:54;9.98;;;5.05;;
21251;SDS011;10784;50.578;17.878;2023-02-28T07:31:27;9.48;;;3.95;;
21251;SDS011;10784;50.578;17.878;2023-02-28T07:34:00;11.30;;;4.97;;
21251;SDS011;10784;50.578;17.878;2023-02-28T07:36:33;10.50;;;4.65;;
21251;SDS011;10784;50.578;17.878;2023-02-28T07:39:06;7.03;;;4.15;;
21251;SDS011;10784;50.578;17.878;2023-02-28T07:41:39;16.77;;;4.90;;
21251;SDS011;10784;50.578;17.878;2023-02-28T07:44:15;10.45;;;4.35;;
21251;SDS011;10784;50.578;17.878;2023-02-28T07:46:48;15.98;;;5.25;;
21251;SDS011;10784;50.578;17.878;2023-02-28T07:49:21;6.88;;;3.83;;
21251;SDS011;10784;50.578;17.878;2023-02-28T07:51:54;12.05;;;4.10;;
21251;SDS011;10784;50.578;17.878;2023-02-28T07:54:27;7.60;;;4.15;;
21251;SDS011;10784;50.578;17.878;2023-02-28T07:57:00;11.23;;;3.33;;
21251;SDS011;10784;50.578;17.878;2023-02-28T07:59:32;10.15;;;4.88;;
21251;SDS011;10784;50.578;17.878;2023-02-28T08:02:06;12.25;;;4.07;;
21251;SDS011;10784;50.578;17.878;2023-02-28T08:04:38;6.88;;;3.33;;
21251;SDS011;10784;50.578;17.878;2023-02-28T08:07:16;9.95;;;4.10;;
21251;SDS011;10784;50.578;17.878;2023-02-28T08:09:50;11.80;;;5.30;;
21251;SDS011;10784;50.578;17.878;2023-02-28T08:12:23;11.88;;;4.40;;
21251;SDS011;10784;50.578;17.878;2023-02-28T08:14:56;12.55;;;4.07;;
21251;SDS011;10784;50.578;17.878;2023-02-28T08:17:29;13.23;;;4.75;;
21251;SDS011;10784;50.578;17.878;2023-02-28T08:20:01;10.45;;;4.80;;
21251;SDS011;10784;50.578;17.878;2023-02-28T08:22:34;9.75;;;5.28;;
21251;SDS011;10784;50.578;17.878;2023-02-28T08:25:07;8.27;;;3.92;;
21251;SDS011;10784;50.578;17.878;2023-02-28T08:27:40;10.07;;;3.90;;
21251;SDS011;10784;50.578;17.878;2023-02-28T08:30:13;6.57;;;3.63;;
21251;SDS011;10784;50.578;17.878;2023-02-28T08:32:46;7.55;;;3.03;;
21251;SDS011;10784;50.578;17.878;2023-02-28T08:35:19;8.18;;;3.22;;
21251;SDS011;10784;50.578;17.878;2023-02-28T08:37:52;6.03;;;3.10;;
21251;SDS011;10784;50.578;17.878;2023-02-28T08:40:24;5.38;;;2.75;;
21251;SDS011;10784;50.578;17.878;2023-02-28T08:42:57;10.23;;;3.50;;
21251;SDS011;10784;50.578;17.878;2023-02-28T08:45:31;9.25;;;3.78;;
21251;SDS011;10784;50.578;17.878;2023-02-28T08:48:04;4.40;;;3.30;;
21251;SDS011;10784;50.578;17.878;2023-02-28T08:50:37;5.80;;;3.17;;
21251;SDS011;10784;50.578;17.878;2023-02-28T08:53:10;3.05;;;2.78;;
21251;SDS011;10784;50.578;17.878;2023-02-28T08:55:42;9.82;;;3.70;;
21251;SDS011;10784;50.578;17.878;2023-02-28T08:58:15;4.63;;;3.53;;
21251;SDS011;10784;50.578;17.878;2023-02-28T09:00:48;10.70;;;4.22;;
21251;SDS011;10784;50.578;17.878;2023-02-28T09:03:21;5.97;;;3.40;;
21251;SDS011;10784;50.578;17.878;2023-02-28T09:05:56;9.48;;;4.03;;
21251;SDS011;10784;50.578;17.878;2023-02-28T09:08:30;6.30;;;2.63;;
21251;SDS011;10784;50.578;17.878;2023-02-28T09:11:04;11.57;;;4.75;;
21251;SDS011;10784;50.578;17.878;2023-02-28T09:13:37;12.77;;;4.43;;
21251;SDS011;10784;50.578;17.878;2023-02-28T09:16:11;6.15;;;3.72;;
21251;SDS011;10784;50.578;17.878;2023-02-28T09:18:44;7.15;;;3.88;;
21251;SDS011;10784;50.578;17.878;2023-02-28T09:21:18;13.27;;;4.47;;
21251;SDS011;10784;50.578;17.878;2023-02-28T09:23:51;6.80;;;3.95;;
21251;SDS011;10784;50.578;17.878;2023-02-28T09:26:25;6.25;;;2.72;;
21251;SDS011;10784;50.578;17.878;2023-02-28T09:29:10;6.40;;;2.90;;
21251;SDS011;10784;50.578;17.878;2023-02-28T09:31:43;6.43;;;3.40;;
21251;SDS011;10784;50.578;17.878;2023-02-28T09:34:17;5.95;;;3.42;;
21251;SDS011;10784;50.578;17.878;2023-02-28T09:36:49;5.57;;;2.60;;
21251;SDS011;10784;50.578;17.878;2023-02-28T09:39:27;9.55;;;3.80;;
21251;SDS011;10784;50.578;17.878;2023-02-28T09:42:00;6.68;;;2.65;;
21251;SDS011;10784;50.578;17.878;2023-02-28T09:44:38;8.90;;;3.85;;
21251;SDS011;10784;50.578;17.878;2023-02-28T09:47:16;14.60;;;4.47;;
21251;SDS011;10784;50.578;17.878;2023-02-28T09:49:51;9.07;;;3.97;;
21251;SDS011;10784;50.578;17.878;2023-02-28T09:52:26;6.18;;;2.55;;
21251;SDS011;10784;50.578;17.878;2023-02-28T09:55:08;13.43;;;6.03;;
21251;SDS011;10784;50.578;17.878;2023-02-28T09:57:43;6.03;;;3.35;;
21251;SDS011;10784;50.578;17.878;2023-02-28T10:05:27;6.15;;;3.40;;
21251;SDS011;10784;50.578;17.878;2023-02-28T10:08:02;5.93;;;2.97;;
21251;SDS011;10784;50.578;17.878;2023-02-28T10:15:47;11.25;;;3.50;;
21251;SDS011;10784;50.578;17.878;2023-02-28T10:18:27;6.85;;;3.55;;
21251;SDS011;10784;50.578;17.878;2023-02-28T10:21:01;6.65;;;2.88;;
21251;SDS011;10784;50.578;17.878;2023-02-28T10:23:35;11.75;;;3.05;;
21251;SDS011;10784;50.578;17.878;2023-02-28T10:26:11;8.77;;;2.63;;
21251;SDS011;10784;50.578;17.878;2023-02-28T10:28:44;7.32;;;3.15;;
21251;SDS011;10784;50.578;17.878;2023-02-28T10:31:18;4.72;;;3.08;;
21251;SDS011;10784;50.578;17.878;2023-02-28T10:33:52;4.53;;;2.80;;
21251;SDS011;10784;50.578;17.878;2023-02-28T10:36:25;4.03;;;3.10;;
21251;SDS011;10784;50.578;17.878;2023-02-28T10:38:58;6.70;;;3.33;;
21251;SDS011;10784;50.578;17.878;2023-02-28T10:41:32;15.82;;;3.53;;
21251;SDS011;10784;50.578;17.878;2023-02-28T10:44:13;21.50;;;6.60;;
21251;SDS011;10784;50.578;17.878;2023-02-28T10:46:46;7.72;;;3.28;;
21251;SDS011;10784;50.578;17.878;2023-02-28T10:51:52;4.03;;;3.10;;
21251;SDS011;10784;50.578;17.878;2023-02-28T10:54:30;8.02;;;3.05;;
21251;SDS011;10784;50.578;17.878;2023-02-28T10:59:45;5.57;;;2.33;;
21251;SDS011;10784;50.578;17.878;2023-02-28T11:02:39;3.20;;;2.17;;
21251;SDS011;10784;50.578;17.878;2023-02-28T11:05:34;2.88;;;2.13;;
21251;SDS011;10784;50.578;17.878;2023-02-28T11:08:15;6.22;;;2.95;;
21251;SDS011;10784;50.578;17.878;2023-02-28T11:10:57;3.42;;;2.22;;
21251;SDS011;10784;50.578;17.878;2023-02-28T11:13:33;8.35;;;2.35;;
21251;SDS011;10784;50.578;17.878;2023-02-28T11:16:07;5.88;;;3.00;;
21251;SDS011;10784;50.578;17.878;2023-02-28T11:21:22;2.88;;;2.33;;
21251;SDS011;10784;50.578;17.878;2023-02-28T11:23:59;3.65;;;2.63;;
21251;SDS011;10784;50.578;17.878;2023-02-28T11:29:24;4.88;;;3.25;;
21251;SDS011;10784;50.578;17.878;2023-02-28T11:32:04;12.18;;;3.35;;
21251;SDS011;10784;50.578;17.878;2023-02-28T11:34:38;5.05;;;2.83;;
21251;SDS011;10784;50.578;17.878;2023-02-28T11:37:13;6.72;;;3.33;;
21251;SDS011;10784;50.578;17.878;2023-02-28T11:39:47;9.50;;;2.88;;
21251;SDS011;10784;50.578;17.878;2023-02-28T11:45:03;5.32;;;2.85;;
21251;SDS011;10784;50.578;17.878;2023-02-28T11:50:16;4.45;;;3.45;;
21251;SDS011;10784;50.578;17.878;2023-02-28T11:53:24;9.07;;;3.95;;
21251;SDS011;10784;50.578;17.878;2023-02-28T11:55:49;4.88;;;2.30;;
21251;SDS011;10784;50.578;17.878;2023-02-28T11:58:30;5.25;;;3.35;;
21251;SDS011;10784;50.578;17.878;2023-02-28T12:03:58;6.50;;;2.85;;
21251;SDS011;10784;50.578;17.878;2023-02-28T12:09:27;7.57;;;2.75;;
21251;SDS011;10784;50.578;17.878;2023-02-28T12:28:21;5.35;;;3.20;;
21251;SDS011;10784;50.578;17.878;2023-02-28T12:33:53;7.30;;;3.63;;
21251;SDS011;10784;50.578;17.878;2023-02-28T12:36:28;10.02;;;2.78;;
21251;SDS011;10784;50.578;17.878;2023-02-28T12:41:45;6.32;;;3.63;;
21251;SDS011;10784;50.578;17.878;2023-02-28T12:44:37;8.20;;;3.63;;
21251;SDS011;10784;50.578;17.878;2023-02-28T12:47:13;5.35;;;2.88;;
21251;SDS011;10784;50.578;17.878;2023-02-28T12:49:57;8.85;;;3.13;;
21251;SDS011;10784;50.578;17.878;2023-02-28T12:52:56;7.18;;;3.60;;
21251;SDS011;10784;50.578;17.878;2023-02-28T12:58:01;7.30;;;2.95;;
21251;SDS011;10784;50.578;17.878;2023-02-28T13:00:36;7.65;;;3.65;;
21251;SDS011;10784;50.578;17.878;2023-02-28T13:05:58;6.70;;;3.42;;
21251;SDS011;10784;50.578;17.878;2023-02-28T13:14:02;6.35;;;2.83;;
21251;SDS011;10784;50.578;17.878;2023-02-28T13:19:31;5.47;;;3.08;;
21251;SDS011;10784;50.578;17.878;2023-02-28T13:22:05;6.82;;;3.70;;
21251;SDS011;10784;50.578;17.878;2023-02-28T13:27:17;7.43;;;3.45;;
21251;SDS011;10784;50.578;17.878;2023-02-28T13:29:56;12.23;;;3.95;;
21251;SDS011;10784;50.578;17.878;2023-02-28T13:32:30;7.63;;;3.53;;
21251;SDS011;10784;50.578;17.878;2023-02-28T13:37:43;7.10;;;4.07;;
21251;SDS011;10784;50.578;17.878;2023-02-28T13:40:33;18.60;;;3.70;;
21251;SDS011;10784;50.578;17.878;2023-02-28T13:43:16;17.20;;;4.28;;
21251;SDS011;10784;50.578;17.878;2023-02-28T13:46:09;15.07;;;4.70;;
21251;SDS011;10784;50.578;17.878;2023-02-28T13:48:47;16.00;;;4.43;;
21251;SDS011;10784;50.578;17.878;2023-02-28T13:51:36;8.93;;;4.13;;
21251;SDS011;10784;50.578;17.878;2023-02-28T14:02:34;13.10;;;4.38;;
21251;SDS011;10784;50.578;17.878;2023-02-28T14:05:18;11.75;;;4.28;;
21251;SDS011;10784;50.578;17.878;2023-02-28T14:07:54;7.72;;;4.15;;
21251;SDS011;10784;50.578;17.878;2023-02-28T14:10:29;9.38;;;4.05;;
21251;SDS011;10784;50.578;17.878;2023-02-28T14:13:11;9.02;;;3.75;;
21251;SDS011;10784;50.578;17.878;2023-02-28T14:15:47;15.95;;;4.25;;
21251;SDS011;10784;50.578;17.878;2023-02-28T14:18:23;9.27;;;4.07;;
21251;SDS011;10784;50.578;17.878;2023-02-28T14:21:03;5.97;;;4.10;;
21251;SDS011;10784;50.578;17.878;2023-02-28T14:32:02;11.15;;;4.57;;
21251;SDS011;10784;50.578;17.878;2023-02-28T14:37:19;71.78;;;23.15;;
21251;SDS011;10784;50.578;17.878;2023-02-28T14:39:52;8.13;;;3.92;;
21251;SDS011;10784;50.578;17.878;2023-02-28T14:42:35;10.43;;;3.85;;
21251;SDS011;10784;50.578;17.878;2023-02-28T14:45:19;6.65;;;4.18;;
21251;SDS011;10784;50.578;17.878;2023-02-28T14:47:53;8.82;;;4.47;;
21251;SDS011;10784;50.578;17.878;2023-02-28T14:50:27;7.90;;;4.03;;
21251;SDS011;10784;50.578;17.878;2023-02-28T14:53:02;7.40;;;4.03;;
21251;SDS011;10784;50.578;17.878;2023-02-28T14:55:35;13.73;;;4.82;;
21251;SDS011;10784;50.578;17.878;2023-02-28T14:58:18;13.77;;;4.40;;
21251;SDS011;10784;50.578;17.878;2023-02-28T15:00:52;9.00;;;3.65;;
21251;SDS011;10784;50.578;17.878;2023-02-28T15:03:30;19.10;;;7.20;;
21251;SDS011;10784;50.578;17.878;2023-02-28T15:06:04;13.27;;;3.85;;
21251;SDS011;10784;50.578;17.878;2023-02-28T15:08:38;21.67;;;11.70;;
21251;SDS011;10784;50.578;17.878;2023-02-28T15:11:14;21.42;;;10.50;;
21251;SDS011;10784;50.578;17.878;2023-02-28T15:13:50;56.22;;;20.63;;
21251;SDS011;10784;50.578;17.878;2023-02-28T15:16:33;13.55;;;5.80;;
21251;SDS011;10784;50.578;17.878;2023-02-28T15:19:12;16.15;;;7.38;;
21251;SDS011;10784;50.578;17.878;2023-02-28T15:21:48;12.18;;;5.97;;
21251;SDS011;10784;50.578;17.878;2023-02-28T15:24:24;10.07;;;5.22;;
21251;SDS011;10784;50.578;17.878;2023-02-28T15:27:00;9.77;;;3.85;;
21251;SDS011;10784;50.578;17.878;2023-02-28T15:29:41;12.60;;;5.18;;
21251;SDS011;10784;50.578;17.878;2023-02-28T15:32:34;17.63;;;7.47;;
21251;SDS011;10784;50.578;17.878;2023-02-28T15:38:23;57.88;;;19.30;;
21251;SDS011;10784;50.578;17.878;2023-02-28T15:40:57;13.90;;;6.18;;
21251;SDS011;10784;50.578;17.878;2023-02-28T15:43:31;16.70;;;6.55;;
21251;SDS011;10784;50.578;17.878;2023-02-28T15:46:11;23.52;;;8.70;;
21251;SDS011;10784;50.578;17.878;2023-02-28T15:48:51;44.63;;;15.30;;
21251;SDS011;10784;50.578;17.878;2023-02-28T15:51:25;18.38;;;6.60;;
21251;SDS011;10784;50.578;17.878;2023-02-28T15:54:06;18.52;;;9.40;;
21251;SDS011;10784;50.578;17.878;2023-02-28T15:56:44;29.08;;;9.57;;
21251;SDS011;10784;50.578;17.878;2023-02-28T15:59:19;33.50;;;11.15;;
21251;SDS011;10784;50.578;17.878;2023-02-28T16:02:13;26.67;;;9.85;;
21251;SDS011;10784;50.578;17.878;2023-02-28T16:07:31;11.27;;;6.35;;
21251;SDS011;10784;50.578;17.878;2023-02-28T16:10:06;23.15;;;6.78;;
21251;SDS011;10784;50.578;17.878;2023-02-28T16:12:39;23.40;;;9.93;;
21251;SDS011;10784;50.578;17.878;2023-02-28T16:15:23;32.80;;;10.77;;
21251;SDS011;10784;50.578;17.878;2023-02-28T16:17:57;17.08;;;7.38;;
21251;SDS011;10784;50.578;17.878;2023-02-28T16:20:30;39.20;;;14.88;;
21251;SDS011;10784;50.578;17.878;2023-02-28T16:23:03;35.70;;;10.45;;
21251;SDS011;10784;50.578;17.878;2023-02-28T16:25:37;32.05;;;10.63;;
21251;SDS011;10784;50.578;17.878;2023-02-28T16:30:52;28.08;;;10.75;;
21251;SDS011;10784;50.578;17.878;2023-02-28T16:33:25;20.58;;;7.65;;
21251;SDS011;10784;50.578;17.878;2023-02-28T16:35:58;19.50;;;5.82;;
21251;SDS011;10784;50.578;17.878;2023-02-28T16:38:31;18.40;;;6.70;;
21251;SDS011;10784;50.578;17.878;2023-02-28T16:41:06;46.53;;;14.68;;
21251;SDS011;10784;50.578;17.878;2023-02-28T16:43:39;38.90;;;14.48;;
21251;SDS011;10784;50.578;17.878;2023-02-28T16:46:11;32.20;;;12.75;;
21251;SDS011;10784;50.578;17.878;2023-02-28T16:48:45;28.98;;;11.85;;
21251;SDS011;10784;50.578;17.878;2023-02-28T16:51:19;36.40;;;14.68;;
21251;SDS011;10784;50.578;17.878;2023-02-28T16:53:52;44.67;;;18.40;;
21251;SDS011;10784;50.578;17.878;2023-02-28T16:56:25;37.75;;;15.68;;
21251;SDS011;10784;50.578;17.878;2023-02-28T16:59:02;66.50;;;19.50;;
21251;SDS011;10784;50.578;17.878;2023-02-28T17:01:34;50.15;;;20.30;;
21251;SDS011;10784;50.578;17.878;2023-02-28T17:04:08;63.65;;;20.42;;
21251;SDS011;10784;50.578;17.878;2023-02-28T17:06:41;53.13;;;19.73;;
21251;SDS011;10784;50.578;17.878;2023-02-28T17:09:18;73.97;;;22.48;;
21251;SDS011;10784;50.578;17.878;2023-02-28T17:11:55;47.13;;;16.35;;
21251;SDS011;10784;50.578;17.878;2023-02-28T17:14:29;55.63;;;17.08;;
21251;SDS011;10784;50.578;17.878;2023-02-28T17:17:01;64.05;;;22.95;;
21251;SDS011;10784;50.578;17.878;2023-02-28T17:19:34;90.15;;;32.20;;
21251;SDS011;10784;50.578;17.878;2023-02-28T17:22:08;104.43;;;36.33;;
21251;SDS011;10784;50.578;17.878;2023-02-28T17:24:41;100.18;;;29.75;;
21251;SDS011;10784;50.578;17.878;2023-02-28T17:27:14;71.75;;;28.10;;
21251;SDS011;10784;50.578;17.878;2023-02-28T17:29:47;76.55;;;24.73;;
21251;SDS011;10784;50.578;17.878;2023-02-28T17:32:19;79.53;;;25.98;;
21251;SDS011;10784;50.578;17.878;2023-02-28T17:34:52;70.88;;;24.45;;
21251;SDS011;10784;50.578;17.878;2023-02-28T17:37:25;79.47;;;22.98;;
21251;SDS011;10784;50.578;17.878;2023-02-28T17:39:58;125.70;;;35.47;;
21251;SDS011;10784;50.578;17.878;2023-02-28T17:42:31;160.32;;;52.38;;
21251;SDS011;10784;50.578;17.878;2023-02-28T17:45:04;161.73;;;51.45;;